createdAt,value
2023-05-05T00:00:25.135Z,0.4623
2023-05-05T00:01:33.511Z,0.4780
2023-05-05T00:02:41.534Z,0.4649
2023-05-05T00:03:49.629Z,0.4586
2023-05-05T00:04:57.613Z,0.4493
2023-05-05T00:06:05.649Z,0.4518
2023-05-05T00:07:13.661Z,0.4762
2023-05-05T00:08:21.754Z,0.4593
2023-05-05T00:09:29.757Z,0.4340
2023-05-05T00:10:37.860Z,0.4354
2023-05-05T00:11:45.892Z,0.4521
2023-05-05T00:12:53.851Z,0.4385
2023-05-05T00:14:01.885Z,0.4462
2023-05-05T00:15:09.916Z,0.4623
2023-05-05T00:16:18.103Z,0.4330
2023-05-05T00:17:26.299Z,0.4246
2023-05-05T00:18:34.252Z,0.4536
2023-05-05T00:19:42.343Z,0.4466
2023-05-05T00:20:50.368Z,0.4469
2023-05-05T00:21:58.400Z,0.4495
2023-05-05T00:23:06.472Z,0.4597
2023-05-05T00:24:14.711Z,0.4663
2023-05-05T00:25:22.644Z,0.4524
2023-05-05T00:26:30.606Z,0.4497
2023-05-05T00:27:40.236Z,0.4435
2023-05-05T00:28:51.488Z,0.4356
2023-05-05T00:29:59.832Z,0.4532
2023-05-05T00:31:07.865Z,0.4459
2023-05-05T00:32:15.824Z,0.4673
2023-05-05T00:33:23.919Z,0.4512
2023-05-05T00:34:31.955Z,0.4564
2023-05-05T00:35:39.976Z,0.4437
2023-05-05T00:36:48.061Z,0.4497
2023-05-05T00:37:56.157Z,0.4525
2023-05-05T00:39:04.234Z,0.4410
2023-05-05T00:40:12.246Z,0.4319
2023-05-05T00:41:20.171Z,0.4447
2023-05-05T00:42:28.217Z,0.4458
2023-05-05T00:43:36.273Z,0.4595
2023-05-05T00:44:44.715Z,0.4507
2023-05-05T00:45:52.520Z,0.4456
2023-05-05T00:47:00.770Z,0.4334
2023-05-05T00:48:08.796Z,0.4517
2023-05-05T00:49:16.851Z,0.4812
2023-05-05T00:50:24.773Z,0.4504
2023-05-05T00:51:32.852Z,0.4563
2023-05-05T00:52:40.996Z,0.4601
2023-05-05T00:53:48.990Z,0.4640
2023-05-05T00:54:57.053Z,0.4443
2023-05-05T00:56:04.960Z,0.4405
2023-05-05T00:57:13.029Z,0.4471
2023-05-05T00:58:21.100Z,0.4627
2023-05-05T00:59:29.305Z,0.4629
2023-05-05T01:00:37.334Z,0.4749
2023-05-05T01:01:45.399Z,0.4710
2023-05-05T01:02:53.588Z,0.4648
2023-05-05T01:04:01.742Z,0.4556
2023-05-05T01:05:09.585Z,0.4555
2023-05-05T01:06:17.677Z,0.4648
2023-05-05T01:07:25.695Z,0.4557
2023-05-05T01:08:33.779Z,0.4456
2023-05-05T01:09:41.869Z,0.4445
2023-05-05T01:10:49.756Z,0.4536
2023-05-05T01:11:57.813Z,0.4463
2023-05-05T01:13:05.961Z,0.4481
2023-05-05T01:14:14.087Z,0.4548
2023-05-05T01:15:22.139Z,0.4622
2023-05-05T01:16:30.199Z,0.4642
2023-05-05T01:17:38.309Z,0.4747
2023-05-05T01:18:46.319Z,0.4573
2023-05-05T01:19:54.611Z,0.4550
2023-05-05T01:21:02.508Z,0.4609
2023-05-05T01:22:10.631Z,0.4425
2023-05-05T01:23:18.628Z,0.4533
2023-05-05T01:24:26.771Z,0.4683
2023-05-05T01:25:34.618Z,0.4699
2023-05-05T01:26:42.680Z,0.4704
2023-05-05T01:27:50.721Z,0.4691
2023-05-05T01:28:58.945Z,0.4637
2023-05-05T01:30:07.304Z,0.4562
2023-05-05T01:31:15.080Z,0.4513
2023-05-05T01:32:23.114Z,0.4615
2023-05-05T01:33:31.151Z,0.4690
2023-05-05T01:34:39.207Z,0.4549
2023-05-05T01:35:47.474Z,0.4569
2023-05-05T01:36:55.337Z,0.4538
2023-05-05T01:38:03.402Z,0.4524
2023-05-05T01:39:11.466Z,0.4684
2023-05-05T01:40:19.447Z,0.4496
2023-05-05T01:41:27.416Z,0.4737
2023-05-05T01:42:35.538Z,0.4864
2023-05-05T01:43:43.754Z,0.4673
2023-05-05T01:44:51.792Z,0.4576
2023-05-05T01:45:59.873Z,0.4512
2023-05-05T01:47:07.923Z,0.4480
2023-05-05T01:48:15.939Z,0.4587
2023-05-05T01:49:23.990Z,0.4720
2023-05-05T01:50:32.086Z,0.4701
2023-05-05T01:51:40.117Z,0.4578
2023-05-05T01:52:48.290Z,0.4607
2023-05-05T01:53:56.323Z,0.4402
2023-05-05T01:55:04.168Z,0.4550
2023-05-05T01:56:12.206Z,0.4743
2023-05-05T01:57:20.276Z,0.4728
2023-05-05T01:58:28.472Z,0.4560
2023-05-05T01:59:36.504Z,0.4474
2023-05-05T02:00:44.794Z,0.4697
2023-05-05T02:01:52.644Z,0.4637
2023-05-05T02:03:00.725Z,0.4791
2023-05-05T02:04:08.737Z,0.4637
2023-05-05T02:05:16.948Z,0.4515
2023-05-05T02:06:24.887Z,0.4438
2023-05-05T02:07:32.928Z,0.4457
2023-05-05T02:08:41.232Z,0.4553
2023-05-05T02:09:48.970Z,0.4489
2023-05-05T02:10:57.018Z,0.4578
2023-05-05T02:12:05.103Z,0.4670
2023-05-05T02:13:13.384Z,0.4626
2023-05-05T02:14:21.304Z,0.4401
2023-05-05T02:15:29.426Z,0.4412
2023-05-05T02:16:37.637Z,0.4385
2023-05-05T02:17:45.551Z,0.4505
2023-05-05T02:18:53.562Z,0.4497
2023-05-05T02:20:01.714Z,0.4580
2023-05-05T02:21:09.695Z,0.4526
2023-05-05T02:22:17.720Z,0.4535
2023-05-05T02:23:25.892Z,0.4544
2023-05-05T02:24:33.728Z,0.4454
2023-05-05T02:25:41.806Z,0.4518
2023-05-05T02:26:49.846Z,0.4488
2023-05-05T02:27:58.055Z,0.4705
2023-05-05T02:29:06.070Z,0.4499
2023-05-05T02:30:14.207Z,0.4367
2023-05-05T02:31:22.209Z,0.4586
2023-05-05T02:32:30.464Z,0.4595
2023-05-05T02:33:38.320Z,0.4517
2023-05-05T02:34:46.374Z,0.4371
2023-05-05T02:35:54.480Z,0.4560
2023-05-05T02:37:02.484Z,0.4430
2023-05-05T02:38:10.639Z,0.4408
2023-05-05T02:39:18.484Z,0.4501
2023-05-05T02:40:26.563Z,0.4395
2023-05-05T02:41:34.642Z,0.4397
2023-05-05T02:42:42.709Z,0.4397
2023-05-05T02:43:50.752Z,0.4482
2023-05-05T02:44:58.958Z,0.4539
2023-05-05T02:46:07.058Z,0.4642
2023-05-05T02:47:15.040Z,0.4542
2023-05-05T02:48:23.138Z,0.4558
2023-05-05T02:49:31.294Z,0.4691
2023-05-05T02:50:39.299Z,0.4538
2023-05-05T02:51:47.315Z,0.4425
2023-05-05T02:52:55.364Z,0.4492
2023-05-05T02:54:03.366Z,0.4574
2023-05-05T02:55:11.594Z,0.4455
2023-05-05T02:56:19.452Z,0.4487
2023-05-05T02:57:27.444Z,0.4519
2023-05-05T02:58:35.547Z,0.4548
2023-05-05T02:59:43.756Z,0.4441
2023-05-05T03:00:51.827Z,0.4318
2023-05-05T03:01:59.909Z,0.4436
2023-05-05T03:03:07.918Z,0.4508
2023-05-05T03:04:15.950Z,0.4637
2023-05-05T03:05:23.995Z,0.4527
2023-05-05T03:06:32.121Z,0.4487
2023-05-05T03:07:40.148Z,0.4514
2023-05-05T03:08:48.188Z,0.4334
2023-05-05T03:09:56.272Z,0.4605
2023-05-05T03:11:04.258Z,0.4746
2023-05-05T03:12:12.261Z,0.4589
2023-05-05T03:13:20.356Z,0.4636
2023-05-05T03:14:29.583Z,0.4721
2023-05-05T03:15:41.510Z,0.4646
2023-05-05T03:16:49.560Z,0.4594
2023-05-05T03:17:57.670Z,0.4567
2023-05-05T03:19:05.662Z,0.4673
2023-05-05T03:20:13.703Z,0.4586
2023-05-05T03:21:21.921Z,0.4498
2023-05-05T03:22:29.848Z,0.4472
2023-05-05T03:23:37.843Z,0.4557
2023-05-05T03:24:45.776Z,0.4590
2023-05-05T03:25:53.873Z,0.4591
2023-05-05T03:27:01.964Z,0.4641
2023-05-05T03:28:10.112Z,0.4858
2023-05-05T03:29:18.198Z,0.4648
2023-05-05T03:30:26.285Z,0.4442
2023-05-05T03:31:34.362Z,0.4577
2023-05-05T03:32:42.358Z,0.4648
2023-05-05T03:33:50.438Z,0.4641
2023-05-05T03:34:58.636Z,0.4660
2023-05-05T03:36:06.544Z,0.4563
2023-05-05T03:37:14.800Z,0.4633
2023-05-05T03:38:22.627Z,0.4596
2023-05-05T03:39:30.576Z,0.4610
2023-05-05T03:40:44.127Z,0.4623
2023-05-05T03:41:51.764Z,0.4792
2023-05-05T03:42:59.793Z,0.4690
2023-05-05T03:44:07.855Z,0.4502
2023-05-05T03:45:16.049Z,0.4510
2023-05-05T03:46:23.969Z,0.4330
2023-05-05T03:47:32.005Z,0.4131
2023-05-05T03:48:40.042Z,0.4202
2023-05-05T03:49:48.126Z,0.4322
2023-05-05T03:50:56.154Z,0.4477
2023-05-05T03:52:04.248Z,0.4568
2023-05-05T03:53:12.165Z,0.4427
2023-05-05T03:54:20.206Z,0.4427
2023-05-05T03:55:28.270Z,0.4615
2023-05-05T03:56:36.513Z,0.4657
2023-05-05T03:57:44.526Z,0.4678
2023-05-05T03:58:52.579Z,0.4656
2023-05-05T04:00:00.648Z,0.4561
2023-05-05T04:01:08.697Z,0.4570
2023-05-05T04:02:18.630Z,0.4642
2023-05-05T04:03:29.707Z,0.4645
2023-05-05T04:04:37.697Z,0.4573
2023-05-05T04:05:45.761Z,0.4502
2023-05-05T04:06:53.788Z,0.4507
2023-05-05T04:08:01.794Z,0.4692
2023-05-05T04:09:09.818Z,0.4642
2023-05-05T04:10:18.040Z,0.4566
2023-05-05T04:11:26.141Z,0.4427
2023-05-05T04:12:34.225Z,0.4381
2023-05-05T04:13:42.452Z,0.4661
2023-05-05T04:14:50.314Z,0.4838
2023-05-05T04:15:58.467Z,0.4745
2023-05-05T04:17:06.374Z,0.4523
2023-05-05T04:18:14.465Z,0.4485
2023-05-05T04:19:22.539Z,0.4402
2023-05-05T04:20:30.528Z,0.4552
2023-05-05T04:21:38.564Z,0.4447
2023-05-05T04:22:46.602Z,0.4531
2023-05-05T04:23:54.620Z,0.4561
2023-05-05T04:25:02.768Z,0.4594
2023-05-05T04:26:10.856Z,0.4570
2023-05-05T04:27:18.931Z,0.4495
2023-05-05T04:28:27.064Z,0.4415
2023-05-05T04:29:35.104Z,0.4473
2023-05-05T04:30:43.131Z,0.4490
2023-05-05T04:31:51.249Z,0.4560
2023-05-05T04:32:59.321Z,0.4661
2023-05-05T04:34:07.385Z,0.4636
2023-05-05T04:35:15.341Z,0.4513
2023-05-05T04:36:23.288Z,0.4356
2023-05-05T04:37:31.386Z,0.4492
2023-05-05T04:38:39.407Z,0.4529
2023-05-05T04:39:47.528Z,0.4519
2023-05-05T04:40:55.621Z,0.4369
2023-05-05T04:42:03.683Z,0.4312
2023-05-05T04:43:11.811Z,0.4564
2023-05-05T04:44:19.794Z,0.4767
2023-05-05T04:45:27.825Z,0.4654
2023-05-05T04:46:35.918Z,0.4682
2023-05-05T04:47:44.131Z,0.4669
2023-05-05T04:48:52.123Z,0.4476
2023-05-05T04:50:00.125Z,0.4425
2023-05-05T04:51:08.077Z,0.4604
2023-05-05T04:52:16.140Z,0.4504
2023-05-05T04:53:24.212Z,0.4538
2023-05-05T04:54:32.337Z,0.4470
2023-05-05T04:55:40.357Z,0.4491
2023-05-05T04:56:48.403Z,0.4588
2023-05-05T04:57:56.558Z,0.4361
2023-05-05T04:59:04.548Z,0.4322
2023-05-05T05:00:12.576Z,0.4449
2023-05-05T05:01:20.664Z,0.4558
2023-05-05T05:02:28.774Z,0.4804
2023-05-05T05:03:36.864Z,0.4715
2023-05-05T05:04:44.865Z,0.4635
2023-05-05T05:05:52.967Z,0.4483
2023-05-05T05:07:00.855Z,0.4625
2023-05-05T05:08:08.974Z,0.4538
2023-05-05T05:09:17.157Z,0.4642
2023-05-05T05:10:25.186Z,0.4613
2023-05-05T05:11:33.237Z,0.4692
2023-05-05T05:12:41.288Z,0.4704
2023-05-05T05:13:49.386Z,0.4713
2023-05-05T05:14:57.512Z,0.4661
2023-05-05T05:16:05.582Z,0.4749
2023-05-05T05:17:13.456Z,0.4685
2023-05-05T05:18:21.596Z,0.4570
2023-05-05T05:19:29.693Z,0.4608
2023-05-05T05:20:37.546Z,0.4717
2023-05-05T05:21:45.628Z,0.4648
2023-05-05T05:22:53.711Z,0.4700
2023-05-05T05:24:01.789Z,0.4645
2023-05-05T05:25:09.913Z,0.4688
2023-05-05T05:26:17.974Z,0.4536
2023-05-05T05:27:26.010Z,0.4582
2023-05-05T05:28:34.209Z,0.4631
2023-05-05T05:29:42.187Z,0.4864
2023-05-05T05:30:50.249Z,0.4689
2023-05-05T05:31:58.392Z,0.4632
2023-05-05T05:33:06.437Z,0.4736
2023-05-05T05:34:14.463Z,0.4631
2023-05-05T05:35:22.405Z,0.4704
2023-05-05T05:36:30.472Z,0.4806
2023-05-05T05:37:38.573Z,0.4850
2023-05-05T05:38:46.605Z,0.4601
2023-05-05T05:39:54.710Z,0.4582
2023-05-05T05:41:02.854Z,0.4612
2023-05-05T05:42:10.841Z,0.4812
2023-05-05T05:43:18.983Z,0.4788
2023-05-05T05:44:27.001Z,0.4561
2023-05-05T05:45:35.228Z,0.4566
2023-05-05T05:46:43.151Z,0.4715
2023-05-05T05:47:51.363Z,0.4677
2023-05-05T05:48:59.327Z,0.4901
2023-05-05T05:50:07.438Z,0.4678
2023-05-05T05:51:15.222Z,0.4712
2023-05-05T05:52:23.265Z,0.4808
2023-05-05T05:53:31.517Z,0.4889
2023-05-05T05:54:39.380Z,0.4846
2023-05-05T05:55:47.719Z,0.4888
2023-05-05T05:56:55.580Z,0.4911
2023-05-05T05:58:03.720Z,0.4689
2023-05-05T05:59:11.786Z,0.4641
2023-05-05T06:00:19.763Z,0.4658
2023-05-05T06:01:27.840Z,0.4638
2023-05-05T06:02:35.934Z,0.4625
2023-05-05T06:03:44.046Z,0.4531
2023-05-05T06:04:51.927Z,0.4545
2023-05-05T06:05:59.976Z,0.4751
2023-05-05T06:07:08.006Z,0.4717
2023-05-05T06:08:16.171Z,0.4879
2023-05-05T06:09:24.330Z,0.4626
2023-05-05T06:10:32.524Z,0.4795
2023-05-05T06:11:45.258Z,0.4743
2023-05-05T06:12:53.652Z,0.4776
2023-05-05T06:14:01.414Z,0.4789
2023-05-05T06:15:09.397Z,0.4725
2023-05-05T06:16:17.538Z,0.4740
2023-05-05T06:17:25.497Z,0.4602
2023-05-05T06:18:33.547Z,0.4660
2023-05-05T06:19:41.535Z,0.4729
2023-05-05T06:20:49.609Z,0.4540
2023-05-05T06:21:57.908Z,0.4734
2023-05-05T06:23:05.872Z,0.4767
2023-05-05T06:24:13.912Z,0.4856
2023-05-05T06:25:21.981Z,0.4870
2023-05-05T06:26:30.003Z,0.4692
2023-05-05T06:27:38.022Z,0.4529
2023-05-05T06:28:46.112Z,0.4751
2023-05-05T06:29:54.250Z,0.4676
2023-05-05T06:31:02.303Z,0.4634
2023-05-05T06:32:10.286Z,0.4673
2023-05-05T06:33:18.244Z,0.4583
2023-05-05T06:34:26.295Z,0.4493
2023-05-05T06:35:34.388Z,0.4455
2023-05-05T06:36:42.466Z,0.4504
2023-05-05T06:37:50.607Z,0.4606
2023-05-05T06:38:58.618Z,0.4760
2023-05-05T06:40:06.861Z,0.4806
2023-05-05T06:41:14.826Z,0.4688
2023-05-05T06:42:22.827Z,0.4806
2023-05-05T06:43:30.938Z,0.4838
2023-05-05T06:44:38.906Z,0.4614
2023-05-05T06:45:47.212Z,0.4451
2023-05-05T06:46:55.088Z,0.4318
2023-05-05T06:48:03.059Z,0.4520
2023-05-05T06:49:11.050Z,0.4606
2023-05-05T06:50:19.103Z,0.4689
2023-05-05T06:51:27.364Z,0.4639
2023-05-05T06:52:35.412Z,0.4608
2023-05-05T06:53:43.405Z,0.4646
2023-05-05T06:54:51.507Z,0.4564
2023-05-05T06:55:59.518Z,0.4573
2023-05-05T06:57:07.565Z,0.4594
2023-05-05T06:58:15.614Z,0.4498
2023-05-05T06:59:23.681Z,0.4474
2023-05-05T07:00:31.736Z,0.4568
2023-05-05T07:01:39.880Z,0.4527
2023-05-05T07:02:47.771Z,0.4620
2023-05-05T07:03:55.877Z,0.4702
2023-05-05T07:05:03.896Z,0.4730
2023-05-05T07:06:12.009Z,0.4563
2023-05-05T07:07:20.147Z,0.4655
2023-05-05T07:08:28.190Z,0.4724
2023-05-05T07:09:36.304Z,0.4643
2023-05-05T07:10:44.296Z,0.4513
2023-05-05T07:11:52.397Z,0.4493
2023-05-05T07:13:00.444Z,0.4514
2023-05-05T07:14:08.438Z,0.4717
2023-05-05T07:15:27.614Z,0.4700
2023-05-05T07:16:29.372Z,0.4561
2023-05-05T07:17:37.383Z,0.4629
2023-05-05T07:18:45.432Z,0.4686
2023-05-05T07:19:53.753Z,0.4761
2023-05-05T07:21:01.630Z,0.4680
2023-05-05T07:22:09.637Z,0.4540
2023-05-05T07:23:17.849Z,0.4537
2023-05-05T07:24:25.803Z,0.4691
2023-05-05T07:25:33.948Z,0.4500
2023-05-05T07:26:42.004Z,0.4536
2023-05-05T07:27:50.063Z,0.4559
2023-05-05T07:28:58.082Z,0.4644
2023-05-05T07:30:10.057Z,0.4511
2023-05-05T07:31:18.927Z,0.4468
2023-05-05T07:32:27.096Z,0.4443
2023-05-05T07:33:35.074Z,0.4618
2023-05-05T07:34:43.271Z,0.4448
2023-05-05T07:35:51.399Z,0.4411
2023-05-05T07:36:59.410Z,0.4557
2023-05-05T07:38:08.719Z,0.4481
2023-05-05T07:39:20.332Z,0.4421
2023-05-05T07:40:28.371Z,0.4555
2023-05-05T07:41:36.462Z,0.4479
2023-05-05T07:42:44.626Z,0.4428
2023-05-05T07:43:52.677Z,0.4575
2023-05-05T07:45:00.470Z,0.4629
2023-05-05T07:46:08.548Z,0.4514
2023-05-05T07:47:16.629Z,0.4313
2023-05-05T07:48:24.769Z,0.4455
2023-05-05T07:49:32.874Z,0.4599
2023-05-05T07:50:40.905Z,0.4499
2023-05-05T07:51:49.127Z,0.4487
2023-05-05T07:53:06.250Z,0.4568
2023-05-05T07:54:09.916Z,0.4486
2023-05-05T07:55:18.018Z,0.4536
2023-05-05T07:56:26.068Z,0.4511
2023-05-05T07:57:34.239Z,0.4419
2023-05-05T07:58:42.035Z,0.4501
2023-05-05T07:59:50.067Z,0.4668
2023-05-05T08:00:58.141Z,0.4687
2023-05-05T08:02:06.345Z,0.4606
2023-05-05T08:03:14.441Z,0.4396
2023-05-05T08:04:22.428Z,0.4679
2023-05-05T08:05:30.502Z,0.4704
2023-05-05T08:06:38.506Z,0.4655
2023-05-05T08:07:46.800Z,0.4558
2023-05-05T08:08:54.665Z,0.4517
2023-05-05T08:10:02.718Z,0.4491
2023-05-05T08:11:10.834Z,0.4417
2023-05-05T08:12:18.868Z,0.4669
2023-05-05T08:13:26.809Z,0.4568
2023-05-05T08:14:34.840Z,0.4735
2023-05-05T08:15:42.910Z,0.4802
2023-05-05T08:16:51.064Z,0.4824
2023-05-05T08:17:59.190Z,0.4957
2023-05-05T08:19:17.670Z,0.4772
2023-05-05T08:20:20.182Z,0.4573
2023-05-05T08:21:28.164Z,0.4365
2023-05-05T08:22:36.282Z,0.4320
2023-05-05T08:23:44.300Z,0.4396
2023-05-05T08:24:52.634Z,0.4465
2023-05-05T08:26:00.285Z,0.4552
2023-05-05T08:27:08.339Z,0.4337
2023-05-05T08:28:16.440Z,0.4363
2023-05-05T08:29:24.641Z,0.4511
2023-05-05T08:30:32.927Z,0.4454
2023-05-05T08:31:40.751Z,0.4620
2023-05-05T08:32:48.910Z,0.4747
2023-05-05T08:33:56.958Z,0.4648
2023-05-05T08:35:04.927Z,0.4655
2023-05-05T08:36:12.932Z,0.4538
2023-05-05T08:37:21.071Z,0.4483
2023-05-05T08:38:29.066Z,0.4389
2023-05-05T08:39:37.168Z,0.4490
2023-05-05T08:40:45.049Z,0.4375
2023-05-05T08:41:53.152Z,0.4416
2023-05-05T08:43:01.203Z,0.4374
2023-05-05T08:44:09.479Z,0.4499
2023-05-05T08:45:17.543Z,0.4465
2023-05-05T08:46:25.482Z,0.4534
2023-05-05T08:47:33.555Z,0.4661
2023-05-05T08:48:41.741Z,0.4707
2023-05-05T08:49:49.715Z,0.4713
2023-05-05T08:50:59.542Z,0.4525
2023-05-05T08:52:10.647Z,0.4536
2023-05-05T08:53:18.668Z,0.4572
2023-05-05T08:54:26.637Z,0.4584
2023-05-05T08:55:34.690Z,0.4623
2023-05-05T08:56:42.751Z,0.4471
2023-05-05T08:57:51.110Z,0.4541
2023-05-05T08:58:58.965Z,0.4515
2023-05-05T09:00:07.008Z,0.4539
2023-05-05T09:01:15.159Z,0.4377
2023-05-05T09:02:23.209Z,0.4456
2023-05-05T09:03:31.190Z,0.4432
2023-05-05T09:04:39.282Z,0.4421
2023-05-05T09:05:47.277Z,0.4544
2023-05-05T09:06:55.308Z,0.4664
2023-05-05T09:08:03.584Z,0.4630
2023-05-05T09:09:11.406Z,0.4418
2023-05-05T09:10:19.452Z,0.4324
2023-05-05T09:11:27.531Z,0.4415
2023-05-05T09:12:35.664Z,0.4574
2023-05-05T09:13:43.892Z,0.4793
2023-05-05T09:14:51.770Z,0.4711
2023-05-05T09:15:59.894Z,0.4733
2023-05-05T09:17:07.981Z,0.4677
2023-05-05T09:18:15.956Z,0.4532
2023-05-05T09:19:23.974Z,0.4722
2023-05-05T09:20:32.234Z,0.4695
2023-05-05T09:21:40.117Z,0.4442
2023-05-05T09:22:48.174Z,0.4453
2023-05-05T09:23:58.535Z,0.4481
2023-05-05T09:25:09.251Z,0.4672
2023-05-05T09:26:17.214Z,0.4602
2023-05-05T09:27:25.264Z,0.4535
2023-05-05T09:28:33.264Z,0.4586
2023-05-05T09:29:41.493Z,0.4614
2023-05-05T09:30:49.493Z,0.4636
2023-05-05T09:31:57.533Z,0.4696
2023-05-05T09:33:05.667Z,0.4568
2023-05-05T09:34:13.630Z,0.4455
2023-05-05T09:35:21.727Z,0.4510
2023-05-05T09:36:29.700Z,0.4633
2023-05-05T09:37:37.736Z,0.4486
2023-05-05T09:38:45.819Z,0.4582
2023-05-05T09:39:53.929Z,0.4667
2023-05-05T09:41:02.136Z,0.4581
2023-05-05T09:42:10.095Z,0.4562
2023-05-05T09:43:18.163Z,0.4419
2023-05-05T09:44:26.358Z,0.4556
2023-05-05T09:45:34.286Z,0.4778
2023-05-05T09:46:42.515Z,0.4840
2023-05-05T09:47:50.652Z,0.4713
2023-05-05T09:48:58.503Z,0.4354
2023-05-05T09:50:06.696Z,0.4493
2023-05-05T09:51:14.449Z,0.4563
2023-05-05T09:52:22.546Z,0.4520
2023-05-05T09:53:30.556Z,0.4318
2023-05-05T09:54:38.790Z,0.4388
2023-05-05T09:55:46.832Z,0.4507
2023-05-05T09:56:54.827Z,0.4372
2023-05-05T09:58:02.985Z,0.4285
2023-05-05T09:59:11.098Z,0.4259
2023-05-05T10:00:18.923Z,0.4341
2023-05-05T10:01:27.162Z,0.4383
2023-05-05T10:02:35.146Z,0.4596
2023-05-05T10:03:43.265Z,0.4554
2023-05-05T10:04:51.259Z,0.4527
2023-05-05T10:05:59.208Z,0.4620
2023-05-05T10:07:07.263Z,0.4459
2023-05-05T10:08:15.342Z,0.4463
2023-05-05T10:09:23.503Z,0.4309
2023-05-05T10:10:31.610Z,0.4324
2023-05-05T10:11:39.552Z,0.4379
2023-05-05T10:12:47.782Z,0.4363
2023-05-05T10:13:55.773Z,0.4347
2023-05-05T10:15:03.809Z,0.4280
2023-05-05T10:16:12.022Z,0.4402
2023-05-05T10:17:19.888Z,0.4468
2023-05-05T10:18:27.967Z,0.4466
2023-05-05T10:19:36.006Z,0.4528
2023-05-05T10:20:44.024Z,0.4616
2023-05-05T10:21:52.080Z,0.4466
2023-05-05T10:23:00.148Z,0.4572
2023-05-05T10:24:08.245Z,0.4529
2023-05-05T10:25:16.308Z,0.4567
2023-05-05T10:26:24.466Z,0.4607
2023-05-05T10:27:32.524Z,0.4556
2023-05-05T10:28:40.540Z,0.4528
2023-05-05T10:29:48.633Z,0.4558
2023-05-05T10:30:56.704Z,0.4408
2023-05-05T10:32:21.456Z,0.4358
2023-05-05T10:33:30.213Z,0.4436
2023-05-05T10:34:30.491Z,0.4351
2023-05-05T10:35:38.660Z,0.4397
2023-05-05T10:36:46.787Z,0.4295
2023-05-05T10:37:54.826Z,0.4359
2023-05-05T10:39:02.826Z,0.4429
2023-05-05T10:40:11.241Z,0.4442
2023-05-05T10:41:18.979Z,0.4427
2023-05-05T10:42:27.082Z,0.4434
2023-05-05T10:43:35.116Z,0.4318
2023-05-05T10:44:43.116Z,0.4256
2023-05-05T10:45:51.243Z,0.4456
2023-05-05T10:46:59.172Z,0.4377
2023-05-05T10:48:07.247Z,0.4338
2023-05-05T10:49:15.277Z,0.4330
2023-05-05T10:50:23.390Z,0.4345
2023-05-05T10:51:40.094Z,0.4275
2023-05-05T10:52:44.517Z,0.4359
2023-05-05T10:53:52.522Z,0.4506
2023-05-05T10:55:00.509Z,0.4463
2023-05-05T10:56:08.722Z,0.4428
2023-05-05T10:57:16.735Z,0.4360
2023-05-05T10:58:24.723Z,0.4340
2023-05-05T10:59:32.845Z,0.4209
2023-05-05T11:00:40.814Z,0.4262
2023-05-05T11:01:48.838Z,0.4281
2023-05-05T11:02:56.999Z,0.4284
2023-05-05T11:04:05.105Z,0.4277
2023-05-05T11:05:13.102Z,0.4223
2023-05-05T11:06:21.119Z,0.4154
2023-05-05T11:07:29.309Z,0.4101
2023-05-05T11:08:37.557Z,0.4290
2023-05-05T11:09:45.440Z,0.4296
2023-05-05T11:10:53.494Z,0.4447
2023-05-05T11:12:01.596Z,0.4446
2023-05-05T11:13:09.590Z,0.4485
2023-05-05T11:14:17.640Z,0.4328
2023-05-05T11:15:25.633Z,0.4460
2023-05-05T11:16:33.726Z,0.4419
2023-05-05T11:17:41.832Z,0.4354
2023-05-05T11:18:49.968Z,0.4334
2023-05-05T11:19:57.984Z,0.4326
2023-05-05T11:21:06.003Z,0.4382
2023-05-05T11:22:14.106Z,0.4450
2023-05-05T11:23:22.216Z,0.4363
2023-05-05T11:24:30.274Z,0.4320
2023-05-05T11:25:38.404Z,0.4188
2023-05-05T11:26:46.361Z,0.4125
2023-05-05T11:27:54.444Z,0.4236
2023-05-05T11:29:02.501Z,0.4365
2023-05-05T11:30:10.705Z,0.4466
2023-05-05T11:31:18.605Z,0.4442
2023-05-05T11:32:26.633Z,0.4361
2023-05-05T11:33:34.785Z,0.4313
2023-05-05T11:34:42.772Z,0.4373
2023-05-05T11:35:50.847Z,0.4387
2023-05-05T11:36:58.948Z,0.4449
2023-05-05T11:38:07.036Z,0.4303
2023-05-05T11:39:15.049Z,0.4420
2023-05-05T11:40:23.129Z,0.4463
2023-05-05T11:41:31.230Z,0.4442
2023-05-05T11:42:39.290Z,0.4533
2023-05-05T11:43:47.274Z,0.4445
2023-05-05T11:44:55.301Z,0.4540
2023-05-05T11:46:03.396Z,0.4352
2023-05-05T11:47:11.408Z,0.4439
2023-05-05T11:48:19.770Z,0.4511
2023-05-05T11:49:27.691Z,0.4461
2023-05-05T11:50:35.855Z,0.4324
2023-05-05T11:51:43.787Z,0.4287
2023-05-05T11:52:51.848Z,0.4343
2023-05-05T11:53:59.904Z,0.4534
2023-05-05T11:55:07.972Z,0.4492
2023-05-05T11:56:16.102Z,0.4566
2023-05-05T11:57:24.245Z,0.4467
2023-05-05T11:58:32.205Z,0.4360
2023-05-05T11:59:40.086Z,0.4386
2023-05-05T12:00:48.147Z,0.4520
2023-05-05T12:01:56.213Z,0.4648
2023-05-05T12:03:04.522Z,0.4503
2023-05-05T12:04:12.861Z,0.4345
2023-05-05T12:05:20.546Z,0.4382
2023-05-05T12:06:28.610Z,0.4401
2023-05-05T12:07:36.631Z,0.4330
2023-05-05T12:08:44.777Z,0.4249
2023-05-05T12:09:52.791Z,0.4206
2023-05-05T12:11:01.009Z,0.4183
2023-05-05T12:12:08.974Z,0.4214
2023-05-05T12:13:17.131Z,0.4325
2023-05-05T12:14:24.980Z,0.4351
2023-05-05T12:15:32.996Z,0.4264
2023-05-05T12:16:41.271Z,0.4305
2023-05-05T12:17:49.280Z,0.4186
2023-05-05T12:18:57.408Z,0.4160
2023-05-05T12:20:05.592Z,0.4234
2023-05-05T12:21:13.482Z,0.4270
2023-05-05T12:22:21.539Z,0.4367
2023-05-05T12:23:29.641Z,0.4304
2023-05-05T12:24:37.624Z,0.4242
2023-05-05T12:25:45.721Z,0.4301
2023-05-05T12:26:53.826Z,0.4276
2023-05-05T12:28:02.036Z,0.4172
2023-05-05T12:29:09.844Z,0.4204
2023-05-05T12:30:17.929Z,0.4264
2023-05-05T12:31:25.953Z,0.4273
2023-05-05T12:32:34.259Z,0.4718
2023-05-05T12:33:42.240Z,0.4607
2023-05-05T12:34:50.308Z,0.4474
2023-05-05T12:35:58.480Z,0.4279
2023-05-05T12:37:06.362Z,0.4255
2023-05-05T12:38:14.466Z,0.4193
2023-05-05T12:39:22.565Z,0.4271
2023-05-05T12:40:30.601Z,0.4255
2023-05-05T12:41:38.668Z,0.4298
2023-05-05T12:42:46.763Z,0.4130
2023-05-05T12:43:54.756Z,0.4154
2023-05-05T12:45:02.751Z,0.4220
2023-05-05T12:46:10.928Z,0.4169
2023-05-05T12:47:19.004Z,0.4045
2023-05-05T12:48:27.111Z,0.4063
2023-05-05T12:49:35.064Z,0.4190
2023-05-05T12:50:43.251Z,0.4250
2023-05-05T12:51:51.241Z,0.4433
2023-05-05T12:52:59.358Z,0.4525
2023-05-05T12:54:07.446Z,0.4628
2023-05-05T12:55:15.567Z,0.4532
2023-05-05T12:56:23.559Z,0.4459
2023-05-05T12:57:31.562Z,0.4357
2023-05-05T12:58:39.558Z,0.4125
2023-05-05T12:59:47.675Z,0.4133
2023-05-05T13:00:55.816Z,0.4385
2023-05-05T13:02:04.160Z,0.4414
2023-05-05T13:03:12.024Z,0.4140
2023-05-05T13:04:20.042Z,0.4095
2023-05-05T13:05:28.151Z,0.4096
2023-05-05T13:06:36.248Z,0.4195
2023-05-05T13:07:44.208Z,0.4246
2023-05-05T13:08:52.305Z,0.4114
2023-05-05T13:10:00.529Z,0.4150
2023-05-05T13:11:08.405Z,0.4071
2023-05-05T13:12:16.526Z,0.4125
2023-05-05T13:13:24.449Z,0.4264
2023-05-05T13:14:32.674Z,0.4145
2023-05-05T13:15:40.653Z,0.4188
2023-05-05T13:16:48.784Z,0.4202
2023-05-05T13:17:57.100Z,0.4075
2023-05-05T13:19:04.896Z,0.4119
2023-05-05T13:20:13.054Z,0.4144
2023-05-05T13:21:21.060Z,0.4048
2023-05-05T13:22:29.164Z,0.4149
2023-05-05T13:23:37.190Z,0.4069
2023-05-05T13:24:52.479Z,0.4028
2023-05-05T13:25:58.101Z,0.4112
2023-05-05T13:27:06.162Z,0.4300
2023-05-05T13:28:14.201Z,0.4250
2023-05-05T13:29:24.667Z,0.4137
2023-05-05T13:30:35.326Z,0.4170
2023-05-05T13:31:43.656Z,0.4111
2023-05-05T13:32:51.599Z,0.4035
2023-05-05T13:33:59.540Z,0.4044
2023-05-05T13:35:07.894Z,0.4130
2023-05-05T13:36:15.840Z,0.4174
2023-05-05T13:37:23.740Z,0.4242
2023-05-05T13:38:31.835Z,0.4307
2023-05-05T13:39:39.752Z,0.4274
2023-05-05T13:40:47.830Z,0.4210
2023-05-05T13:41:55.875Z,0.4133
2023-05-05T13:43:04.052Z,0.4112
2023-05-05T13:44:12.149Z,0.4429
2023-05-05T13:45:20.291Z,0.4371
2023-05-05T13:46:28.355Z,0.4438
2023-05-05T13:47:36.622Z,0.4303
2023-05-05T13:48:45.096Z,0.4268
2023-05-05T13:49:52.496Z,0.4326
2023-05-05T13:51:00.606Z,0.4333
2023-05-05T13:52:08.647Z,0.4272
2023-05-05T13:53:16.660Z,0.4267
2023-05-05T13:54:24.652Z,0.4315
2023-05-05T13:55:32.728Z,0.4310
2023-05-05T13:56:40.813Z,0.4335
2023-05-05T13:57:49.079Z,0.4262
2023-05-05T13:58:57.075Z,0.4408
2023-05-05T14:00:05.037Z,0.4367
2023-05-05T14:01:13.325Z,0.4268
2023-05-05T14:02:21.213Z,0.4317
2023-05-05T14:03:29.339Z,0.4367
2023-05-05T14:04:37.430Z,0.4339
2023-05-05T14:05:45.413Z,0.4372
2023-05-05T14:06:53.515Z,0.4420
2023-05-05T14:08:01.485Z,0.4273
2023-05-05T14:09:09.446Z,0.4205
2023-05-05T14:10:17.502Z,0.4260